Time;durP1;ratioP1;P1;durP2;ratioP2;P2;SDS_P1;SDS_P2;PMS_P1;PMS_P2;Temp;Humidity;BMP_temperature;BMP_pressure;BME280_temperature;BME280_humidity;BME280_pressure;Samples;Min_cycle;Max_cycle;Signal;HPM_P1;HPM_P2
2021/09/11 00:01:08;;;;;;;6.78;4.93;;;21.70;93.90;;;;;;4981909;28;20452;-85
2021/09/11 00:03:33;;;;;;;6.63;5.93;;;21.70;93.90;;;;;;4988211;28;20042;-85
2021/09/11 00:05:59;;;;;;;11.38;5.80;;;21.70;94.00;;;;;;4986344;28;20047;-84
2021/09/11 00:08:25;;;;;;;7.70;5.75;;;21.60;94.00;;;;;;4982075;28;20326;-84
2021/09/11 00:10:50;;;;;;;7.00;6.05;;;21.60;94.10;;;;;;4999496;28;20042;-85
2021/09/11 00:13:16;;;;;;;6.35;4.85;;;21.60;94.10;;;;;;5014436;28;20050;-85
2021/09/11 00:15:41;;;;;;;6.65;5.68;;;21.50;94.20;;;;;;5014734;28;20069;-85
2021/09/11 00:18:07;;;;;;;7.88;4.63;;;21.50;94.30;;;;;;4998729;28;20262;-85
2021/09/11 00:20:33;;;;;;;6.38;5.25;;;21.40;94.40;;;;;;4980311;28;20042;-85
2021/09/11 00:23:00;;;;;;;12.10;5.32;;;21.40;94.40;;;;;;4999261;28;20093;-85
2021/09/11 00:25:26;;;;;;;7.30;5.88;;;21.40;94.50;;;;;;4998950;28;20050;-84
2021/09/11 00:27:52;;;;;;;6.30;5.55;;;21.30;94.60;;;;;;4996904;28;20049;-87
2021/09/11 00:30:18;;;;;;;6.38;5.68;;;21.30;94.70;;;;;;5000019;28;20121;-86
2021/09/11 00:32:43;;;;;;;9.05;6.07;;;21.20;94.80;;;;;;4983108;28;20042;-85
2021/09/11 00:35:14;;;;;;;7.00;5.95;;;21.20;95.10;;;;;;4981708;28;20030;-86
2021/09/11 00:37:41;;;;;;;7.80;6.30;;;21.20;94.90;;;;;;5001464;28;20046;-87
2021/09/11 00:40:08;;;;;;;9.48;6.00;;;21.10;94.90;;;;;;5008413;28;20114;-86
2021/09/11 00:42:34;;;;;;;6.82;5.20;;;21.10;95.10;;;;;;4983818;28;20293;-84
2021/09/11 00:45:00;;;;;;;13.32;6.65;;;21.10;95.20;;;;;;4981169;28;20042;-86
2021/09/11 00:47:26;;;;;;;6.35;5.70;;;21.00;95.20;;;;;;4998668;28;20046;-85
2021/09/11 00:49:51;;;;;;;9.20;6.25;;;21.00;95.30;;;;;;4998493;28;20042;-84
2021/09/11 00:52:17;;;;;;;7.10;5.63;;;21.00;95.30;;;;;;4997634;28;20066;-85
2021/09/11 00:54:43;;;;;;;9.25;5.78;;;20.90;95.30;;;;;;4998615;28;20169;-85
2021/09/11 00:57:09;;;;;;;7.25;5.72;;;20.90;95.30;;;;;;4998709;28;20320;-85
2021/09/11 00:59:35;;;;;;;10.02;5.57;;;20.90;95.30;;;;;;4999092;28;20057;-87
2021/09/11 01:02:00;;;;;;;6.82;5.65;;;20.90;95.30;;;;;;4985521;28;20054;-85
2021/09/11 01:04:29;;;;;;;7.43;6.57;;;20.90;95.40;;;;;;4998891;28;20129;-86
2021/09/11 01:06:55;;;;;;;6.40;5.78;;;20.90;95.50;;;;;;4982452;28;20046;-85
2021/09/11 01:09:21;;;;;;;7.82;6.57;;;20.90;95.50;;;;;;4998385;28;20133;-85
2021/09/11 01:11:47;;;;;;;7.32;6.20;;;20.80;95.60;;;;;;4979785;28;20061;-86
2021/09/11 01:14:12;;;;;;;6.95;6.35;;;20.80;95.70;;;;;;5001087;28;20039;-85
2021/09/11 01:16:38;;;;;;;8.13;6.38;;;20.80;95.70;;;;;;4983072;28;20038;-83
2021/09/11 01:19:03;;;;;;;8.98;7.22;;;20.80;95.70;;;;;;4997179;28;20059;-86
2021/09/11 01:21:29;;;;;;;8.45;7.40;;;20.80;95.80;;;;;;4998544;28;20056;-83
2021/09/11 01:23:54;;;;;;;8.45;6.32;;;20.80;95.90;;;;;;4979986;28;20057;-82
2021/09/11 01:26:20;;;;;;;8.25;6.22;;;20.70;95.90;;;;;;4974310;28;20448;-84
2021/09/11 01:28:45;;;;;;;7.85;6.18;;;20.80;95.90;;;;;;4998262;28;20038;-84
2021/09/11 01:31:11;;;;;;;7.43;6.30;;;20.80;95.90;;;;;;4982534;28;20432;-85
2021/09/11 01:33:36;;;;;;;9.20;6.25;;;20.80;95.90;;;;;;4983809;28;20441;-85
2021/09/11 01:36:02;;;;;;;7.38;6.60;;;20.80;95.90;;;;;;4984545;28;20042;-83
2021/09/11 01:38:28;;;;;;;8.10;7.10;;;20.80;95.90;;;;;;4999389;28;20090;-86
2021/09/11 01:40:53;;;;;;;7.03;5.78;;;20.80;95.90;;;;;;5001212;28;20112;-85
2021/09/11 01:43:30;;;;;;;7.32;6.55;;;20.70;95.90;;;;;;4998371;28;20050;-86
2021/09/11 01:45:56;;;;;;;9.38;6.75;;;20.80;96.00;;;;;;4996461;28;21347;-84
2021/09/11 01:48:22;;;;;;;7.72;6.28;;;20.80;96.00;;;;;;5002434;28;20046;-82
2021/09/11 01:50:47;;;;;;;7.07;6.40;;;20.80;96.00;;;;;;5002854;28;20044;-84
2021/09/11 01:53:13;;;;;;;6.95;6.25;;;20.80;96.00;;;;;;4997914;28;20040;-86
2021/09/11 01:55:38;;;;;;;8.60;7.18;;;20.80;96.00;;;;;;4976353;28;20129;-84
2021/09/11 01:58:04;;;;;;;7.82;6.38;;;20.80;96.00;;;;;;4998263;28;20093;-84
2021/09/11 02:00:30;;;;;;;9.77;6.93;;;20.80;96.00;;;;;;5005710;28;20404;-84
2021/09/11 02:02:56;;;;;;;9.35;7.00;;;20.80;96.00;;;;;;5004302;28;20058;-84
2021/09/11 02:05:22;;;;;;;8.32;7.07;;;20.70;96.10;;;;;;4998693;28;20073;-85
2021/09/11 02:07:48;;;;;;;7.53;6.60;;;20.70;96.10;;;;;;4997049;28;20049;-87
2021/09/11 02:10:17;;;;;;;9.60;7.10;;;20.80;96.10;;;;;;5001429;28;20038;-86
2021/09/11 02:12:43;;;;;;;6.93;6.22;;;20.80;96.10;;;;;;5017012;28;20165;-85
2021/09/11 02:15:10;;;;;;;10.15;7.95;;;20.80;96.10;;;;;;4984429;28;20038;-84
2021/09/11 02:17:36;;;;;;;10.18;7.72;;;20.80;96.50;;;;;;5006647;28;20034;-84
2021/09/11 02:20:02;;;;;;;11.63;7.93;;;20.70;96.50;;;;;;4997213;28;20034;-85
2021/09/11 02:22:28;;;;;;;8.50;7.65;;;20.70;96.50;;;;;;4978620;28;20065;-84
2021/09/11 02:24:54;;;;;;;7.68;6.88;;;20.80;96.40;;;;;;4999662;28;20151;-86
2021/09/11 02:27:20;;;;;;;8.73;7.43;;;20.70;96.40;;;;;;4980024;28;20046;-85
2021/09/11 02:29:45;;;;;;;12.32;7.03;;;20.70;96.40;;;;;;4979028;28;20056;-85
2021/09/11 02:32:11;;;;;;;9.90;7.88;;;20.80;96.40;;;;;;5003094;28;20053;-85
2021/09/11 02:34:36;;;;;;;12.48;7.85;;;20.80;96.50;;;;;;5006496;28;20066;-86
2021/09/11 02:37:02;;;;;;;9.15;7.13;;;20.80;96.50;;;;;;4979838;28;20342;-85
2021/09/11 02:39:28;;;;;;;9.63;8.07;;;20.80;96.50;;;;;;4996729;28;20030;-85
2021/09/11 02:41:54;;;;;;;9.38;7.50;;;20.70;96.50;;;;;;4995545;28;20348;-84
2021/09/11 02:44:19;;;;;;;12.13;7.43;;;20.70;96.60;;;;;;4978806;28;20065;-87
2021/09/11 02:46:44;;;;;;;13.45;8.88;;;20.80;96.60;;;;;;5012492;28;20359;-84
2021/09/11 02:49:10;;;;;;;8.32;7.25;;;20.70;96.60;;;;;;4994900;28;20492;-84
2021/09/11 02:51:36;;;;;;;11.02;7.28;;;20.70;96.60;;;;;;4995064;28;20042;-87
2021/09/11 02:54:02;;;;;;;11.00;7.65;;;20.70;96.60;;;;;;4991382;28;20057;-86
2021/09/11 02:56:27;;;;;;;9.80;6.80;;;20.70;96.60;;;;;;4976115;28;20117;-84
2021/09/11 02:58:53;;;;;;;9.45;7.63;;;20.70;96.60;;;;;;4994243;28;20138;-85
2021/09/11 03:01:18;;;;;;;9.15;7.28;;;20.70;96.60;;;;;;4978613;28;20038;-86
2021/09/11 03:03:44;;;;;;;10.90;7.28;;;20.70;96.70;;;;;;4995026;28;20038;-86
2021/09/11 03:06:10;;;;;;;8.95;7.97;;;20.70;96.80;;;;;;4994719;28;20050;-86
2021/09/11 03:08:36;;;;;;;8.60;6.93;;;20.70;96.80;;;;;;5001646;28;20325;-86
2021/09/11 03:11:02;;;;;;;12.05;7.05;;;20.60;96.80;;;;;;4997953;28;20034;-85
2021/09/11 03:13:27;;;;;;;9.93;7.90;;;20.70;96.80;;;;;;4978496;28;20471;-84
2021/09/11 03:15:53;;;;;;;9.40;7.68;;;20.70;96.80;;;;;;4996349;28;20045;-85
2021/09/11 03:18:19;;;;;;;9.88;7.85;;;20.60;96.80;;;;;;4996477;28;20100;-84
2021/09/11 03:20:46;;;;;;;9.93;7.32;;;20.70;96.80;;;;;;4997707;28;20042;-85
2021/09/11 03:23:13;;;;;;;8.40;7.15;;;20.60;96.80;;;;;;4996418;28;20368;-86
2021/09/11 03:25:38;;;;;;;8.75;7.65;;;20.60;96.80;;;;;;4996060;28;20046;-86
2021/09/11 03:28:04;;;;;;;7.40;6.65;;;20.70;96.60;;;;;;4975607;28;20061;-85
2021/09/11 03:30:29;;;;;;;8.18;7.00;;;20.70;96.80;;;;;;5008693;28;20034;-85
2021/09/11 03:32:55;;;;;;;9.07;6.45;;;20.70;96.70;;;;;;4994175;28;20042;-84
2021/09/11 03:35:21;;;;;;;8.80;6.68;;;20.60;96.80;;;;;;4999539;28;20042;-84
2021/09/11 03:37:46;;;;;;;6.95;6.05;;;20.60;96.80;;;;;;4996313;28;20042;-85
2021/09/11 03:40:13;;;;;;;12.95;6.50;;;20.60;96.80;;;;;;4978119;28;20117;-84
2021/09/11 03:42:38;;;;;;;8.45;6.20;;;20.70;96.90;;;;;;4995601;28;20030;-85
2021/09/11 03:45:04;;;;;;;7.95;7.15;;;20.70;96.90;;;;;;4984438;28;20049;-84
2021/09/11 03:47:30;;;;;;;10.82;7.40;;;20.70;96.80;;;;;;4973601;28;20038;-85
2021/09/11 03:49:55;;;;;;;9.65;7.45;;;20.70;96.90;;;;;;4996830;28;20042;-86
2021/09/11 03:52:21;;;;;;;8.65;6.35;;;20.70;96.90;;;;;;5010750;28;20192;-86
2021/09/11 03:54:46;;;;;;;8.93;7.55;;;20.70;97.00;;;;;;4977592;28;20035;-86
2021/09/11 03:57:12;;;;;;;8.82;7.75;;;20.80;97.10;;;;;;4983261;28;20056;-85
2021/09/11 03:59:37;;;;;;;10.02;7.82;;;20.80;97.10;;;;;;4995890;28;20027;-86
2021/09/11 04:02:03;;;;;;;10.10;8.13;;;20.80;97.20;;;;;;4978894;28;20483;-86
2021/09/11 04:04:28;;;;;;;12.88;8.57;;;20.80;97.20;;;;;;4994315;28;20050;-86
2021/09/11 04:06:54;;;;;;;11.07;7.63;;;20.80;97.20;;;;;;5011027;28;21723;-86
2021/09/11 04:09:19;;;;;;;8.93;8.02;;;20.80;97.30;;;;;;5010900;28;20120;-86
2021/09/11 04:11:45;;;;;;;13.88;8.65;;;20.80;97.30;;;;;;5010917;28;20050;-84
2021/09/11 04:14:11;;;;;;;8.98;8.00;;;20.80;97.30;;;;;;4994707;28;20104;-84
2021/09/11 04:16:37;;;;;;;8.98;7.80;;;20.80;97.40;;;;;;4991121;28;20119;-85
2021/09/11 04:19:02;;;;;;;9.32;7.05;;;20.80;97.40;;;;;;4995252;28;20509;-84
2021/09/11 04:21:28;;;;;;;14.50;8.77;;;20.80;97.50;;;;;;5024840;28;20093;-86
2021/09/11 04:23:53;;;;;;;11.00;8.07;;;20.80;97.50;;;;;;4985788;28;20104;-85
2021/09/11 04:26:19;;;;;;;14.07;8.80;;;20.80;97.60;;;;;;4999030;28;20133;-84
2021/09/11 04:28:44;;;;;;;9.38;8.38;;;20.80;97.60;;;;;;5000244;28;20395;-86
2021/09/11 04:31:10;;;;;;;9.95;8.38;;;20.70;97.70;;;;;;4973542;28;20049;-85
2021/09/11 04:33:35;;;;;;;9.68;8.25;;;20.70;97.80;;;;;;4999460;28;20121;-85
2021/09/11 04:36:01;;;;;;;14.52;9.60;;;20.70;97.90;;;;;;4986456;28;20030;-84
2021/09/11 04:38:26;;;;;;;11.70;8.85;;;20.70;98.00;;;;;;5001375;28;20066;-86
2021/09/11 04:40:52;;;;;;;10.85;8.30;;;20.70;98.00;;;;;;5014317;28;20043;-85
2021/09/11 04:43:18;;;;;;;9.75;8.60;;;20.60;97.90;;;;;;4999202;28;20294;-85
2021/09/11 04:45:46;;;;;;;9.40;8.00;;;20.70;98.00;;;;;;4983408;28;20092;-85
2021/09/11 04:48:12;;;;;;;13.45;8.75;;;20.70;98.00;;;;;;4999898;28;20104;-86
2021/09/11 04:50:37;;;;;;;10.35;9.00;;;20.70;97.90;;;;;;4998298;28;20043;-85
2021/09/11 04:53:03;;;;;;;15.25;8.25;;;20.70;97.80;;;;;;4997750;28;20042;-85
2021/09/11 04:55:28;;;;;;;11.60;9.27;;;20.70;97.80;;;;;;4981952;28;20043;-87
2021/09/11 04:57:54;;;;;;;11.85;8.98;;;20.70;97.80;;;;;;5005932;28;20374;-86
2021/09/11 05:00:19;;;;;;;10.30;8.60;;;20.60;97.70;;;;;;4981343;28;20483;-84
2021/09/11 05:02:45;;;;;;;10.88;8.85;;;20.60;97.80;;;;;;4996698;28;20050;-84
2021/09/11 05:05:11;;;;;;;10.35;8.02;;;20.60;97.80;;;;;;4972886;28;20120;-85
2021/09/11 05:07:37;;;;;;;9.88;8.65;;;20.60;97.90;;;;;;4996073;28;20042;-85
2021/09/11 05:10:03;;;;;;;9.65;8.07;;;20.60;97.80;;;;;;4997490;28;20119;-85
2021/09/11 05:12:29;;;;;;;13.48;8.68;;;20.60;97.90;;;;;;4995796;28;20101;-85
2021/09/11 05:14:54;;;;;;;10.60;8.13;;;20.60;98.00;;;;;;4996492;28;20042;-85
2021/09/11 05:17:20;;;;;;;14.75;9.55;;;20.60;98.00;;;;;;5011674;28;20042;-85
2021/09/11 05:19:45;;;;;;;9.95;8.25;;;20.60;97.90;;;;;;4996725;28;20336;-85
2021/09/11 05:22:11;;;;;;;9.65;7.65;;;20.70;98.10;;;;;;4996321;28;20080;-85
2021/09/11 05:24:37;;;;;;;11.10;8.23;;;20.70;98.10;;;;;;4996074;28;20393;-87
2021/09/11 05:27:02;;;;;;;11.63;8.63;;;20.70;98.10;;;;;;5012248;28;20069;-84
2021/09/11 05:29:28;;;;;;;9.18;7.97;;;20.80;98.20;;;;;;4995733;28;20038;-85
2021/09/11 05:31:53;;;;;;;8.48;7.47;;;20.80;98.10;;;;;;4980667;28;20449;-85
2021/09/11 05:34:19;;;;;;;10.50;8.82;;;20.80;98.10;;;;;;4992943;28;20035;-85
2021/09/11 05:36:44;;;;;;;12.13;8.68;;;20.90;98.00;;;;;;4995646;28;20092;-84
2021/09/11 05:39:10;;;;;;;9.35;8.25;;;20.90;98.00;;;;;;4979275;28;20074;-84
2021/09/11 05:41:35;;;;;;;15.02;7.47;;;20.90;97.90;;;;;;5001825;28;20030;-86
2021/09/11 05:44:01;;;;;;;13.90;7.53;;;20.90;97.90;;;;;;4999936;28;20046;-87
2021/09/11 05:46:27;;;;;;;10.43;7.90;;;20.90;97.90;;;;;;4985193;28;20038;-87
2021/09/11 05:48:53;;;;;;;12.45;8.20;;;20.90;97.90;;;;;;4995876;28;20053;-86
2021/09/11 05:51:18;;;;;;;11.77;7.93;;;20.90;97.90;;;;;;4995782;28;20121;-85
2021/09/11 05:53:44;;;;;;;9.50;8.02;;;21.00;97.90;;;;;;4996819;28;20389;-86
2021/09/11 05:56:09;;;;;;;10.32;8.02;;;21.00;97.80;;;;;;4980120;28;20313;-86
2021/09/11 05:58:35;;;;;;;12.10;8.40;;;21.00;97.70;;;;;;4997400;28;20030;-85
2021/09/11 06:01:00;;;;;;;12.88;7.95;;;21.00;97.80;;;;;;4976546;28;20181;-87
2021/09/11 06:03:26;;;;;;;8.88;7.97;;;21.00;97.80;;;;;;4980822;28;20079;-87
2021/09/11 06:05:52;;;;;;;9.27;6.68;;;21.00;97.50;;;;;;4996771;28;20565;-86
2021/09/11 06:08:17;;;;;;;11.02;7.57;;;21.00;97.30;;;;;;4995957;28;20120;-85
2021/09/11 06:10:43;;;;;;;8.80;7.30;;;21.00;97.30;;;;;;4995620;28;20356;-86
2021/09/11 06:13:08;;;;;;;8.48;6.07;;;21.00;97.30;;;;;;4977182;28;20038;-86
2021/09/11 06:15:34;;;;;;;7.88;6.43;;;21.00;97.30;;;;;;4974259;28;20049;-85
2021/09/11 06:18:00;;;;;;;7.25;6.32;;;21.10;97.30;;;;;;5015191;28;20034;-85
2021/09/11 06:20:25;;;;;;;7.65;6.57;;;21.10;97.10;;;;;;4968637;28;20034;-86
2021/09/11 06:22:51;;;;;;;6.75;6.07;;;21.20;97.20;;;;;;4995241;28;20042;-86
2021/09/11 06:25:16;;;;;;;6.90;6.20;;;21.20;97.10;;;;;;4995667;28;20128;-86
2021/09/11 06:27:42;;;;;;;7.15;6.18;;;21.30;97.10;;;;;;4980227;28;20053;-86
2021/09/11 06:30:09;;;;;;;6.85;6.15;;;21.30;96.90;;;;;;4994310;28;20090;-85
2021/09/11 06:32:35;;;;;;;9.60;7.38;;;21.30;96.80;;;;;;4979509;28;20552;-86
2021/09/11 06:35:00;;;;;;;7.32;6.60;;;21.30;96.80;;;;;;4995790;28;20057;-86
2021/09/11 06:37:25;;;;;;;8.95;6.30;;;21.30;96.80;;;;;;4978509;28;20038;-86
2021/09/11 06:39:51;;;;;;;7.53;6.68;;;21.30;96.60;;;;;;4995448;28;20509;-85
2021/09/11 06:42:19;;;;;;;8.43;7.15;;;21.40;96.70;;;;;;4994722;28;20148;-85
2021/09/11 06:44:47;;;;;;;8.73;6.30;;;21.40;96.60;;;;;;4994211;28;20132;-85
2021/09/11 06:47:13;;;;;;;8.30;6.60;;;21.40;96.60;;;;;;4995517;28;20452;-85
2021/09/11 06:49:39;;;;;;;6.85;6.15;;;21.50;96.70;;;;;;4994892;28;20046;-85
2021/09/11 06:52:05;;;;;;;11.73;6.10;;;21.50;96.60;;;;;;4993954;28;20042;-86
2021/09/11 06:54:30;;;;;;;7.53;6.35;;;21.60;96.40;;;;;;4983128;28;20069;-85
2021/09/11 06:56:56;;;;;;;8.80;7.13;;;21.60;96.50;;;;;;4998905;28;20125;-86
2021/09/11 06:59:21;;;;;;;7.30;6.60;;;21.60;96.30;;;;;;4994418;28;20027;-86
2021/09/11 07:01:47;;;;;;;6.75;6.05;;;21.60;96.40;;;;;;4994455;28;20038;-86
2021/09/11 07:04:12;;;;;;;7.55;5.82;;;21.60;96.20;;;;;;4994276;28;20078;-85
2021/09/11 07:06:38;;;;;;;7.72;5.40;;;21.60;96.40;;;;;;4995018;28;20057;-86
2021/09/11 07:09:03;;;;;;;8.07;5.85;;;21.60;96.50;;;;;;4999595;28;20042;-85
2021/09/11 07:11:29;;;;;;;6.28;5.68;;;21.60;96.40;;;;;;4994864;28;20121;-89
2021/09/11 07:13:54;;;;;;;8.38;5.82;;;21.60;96.10;;;;;;5010764;28;20038;-86
2021/09/11 07:16:20;;;;;;;7.50;6.13;;;21.60;96.30;;;;;;4995347;28;20026;-87
2021/09/11 07:18:45;;;;;;;5.97;5.18;;;21.60;96.10;;;;;;5008558;28;20100;-86
2021/09/11 07:21:11;;;;;;;7.07;6.38;;;21.60;96.40;;;;;;4994301;28;20088;-87
2021/09/11 07:23:36;;;;;;;7.45;6.72;;;21.60;96.50;;;;;;4992524;28;20046;-86
2021/09/11 07:26:02;;;;;;;9.10;6.35;;;21.50;96.50;;;;;;4999602;28;20390;-86
2021/09/11 07:28:28;;;;;;;7.32;6.13;;;21.50;96.50;;;;;;4978034;28;20038;-86
2021/09/11 07:30:53;;;;;;;6.82;5.80;;;21.40;96.60;;;;;;4978345;28;20061;-85
2021/09/11 07:33:19;;;;;;;8.57;6.13;;;21.40;96.70;;;;;;4984802;28;20038;-87
2021/09/11 07:35:45;;;;;;;7.88;6.07;;;21.40;96.70;;;;;;4985901;28;20046;-85
2021/09/11 07:38:11;;;;;;;6.97;6.15;;;21.40;96.90;;;;;;4979208;28;20115;-86
2021/09/11 07:40:37;;;;;;;6.55;5.80;;;21.40;96.70;;;;;;5000555;28;20121;-85
2021/09/11 07:43:04;;;;;;;6.75;5.80;;;21.40;96.90;;;;;;5017217;28;20101;-91
2021/09/11 07:45:29;;;;;;;8.32;6.05;;;21.50;97.20;;;;;;4987245;28;20117;-86
2021/09/11 07:47:55;;;;;;;8.00;5.50;;;21.50;96.60;;;;;;4996125;28;20232;-86
2021/09/11 07:50:25;;;;;;;6.97;6.28;;;21.50;96.70;;;;;;4979574;28;20070;-87
2021/09/11 07:52:52;;;;;;;6.50;5.90;;;21.60;96.80;;;;;;4979484;28;20052;-87
2021/09/11 07:55:17;;;;;;;6.47;5.88;;;21.70;96.80;;;;;;4996595;28;20084;-86
2021/09/11 07:57:43;;;;;;;6.45;5.30;;;21.80;96.60;;;;;;4999678;28;20123;-87
2021/09/11 08:00:09;;;;;;;4.90;4.40;;;21.80;96.30;;;;;;5015551;28;20030;-86
2021/09/11 08:02:34;;;;;;;5.97;5.40;;;21.90;96.30;;;;;;4983012;28;20180;-88
2021/09/11 08:05:00;;;;;;;6.53;4.70;;;21.90;96.30;;;;;;4999642;28;20644;-87
2021/09/11 08:07:27;;;;;;;7.35;4.97;;;22.00;96.10;;;;;;5015512;28;20069;-85
2021/09/11 08:09:54;;;;;;;5.75;4.80;;;22.10;96.10;;;;;;4999006;28;20069;-86
2021/09/11 08:12:20;;;;;;;6.05;4.97;;;22.10;95.90;;;;;;4999315;28;20042;-87
2021/09/11 08:14:46;;;;;;;7.35;5.93;;;22.20;96.20;;;;;;4982645;28;20054;-86
2021/09/11 08:17:11;;;;;;;5.60;5.07;;;22.20;96.40;;;;;;4986421;28;20077;-87
2021/09/11 08:19:36;;;;;;;6.38;5.68;;;22.20;96.00;;;;;;4987705;28;20046;-86
2021/09/11 08:22:02;;;;;;;6.78;5.35;;;22.30;95.90;;;;;;4982630;28;20038;-86
2021/09/11 08:24:27;;;;;;;5.50;4.38;;;22.30;96.30;;;;;;5014675;28;20112;-86
2021/09/11 08:26:53;;;;;;;6.53;5.82;;;22.40;96.00;;;;;;5015389;28;20441;-85
2021/09/11 08:29:18;;;;;;;6.75;5.15;;;22.40;95.50;;;;;;5015191;28;20106;-87
2021/09/11 08:31:44;;;;;;;6.25;5.13;;;22.40;95.50;;;;;;4999123;28;20112;-86
2021/09/11 08:34:09;;;;;;;6.63;4.97;;;22.40;96.00;;;;;;4999209;28;20038;-86
2021/09/11 08:36:35;;;;;;;5.80;5.10;;;22.60;96.10;;;;;;4999935;28;20046;-87
2021/09/11 08:39:00;;;;;;;5.05;4.38;;;22.70;95.30;;;;;;4999454;28;20034;-87
2021/09/11 08:41:27;;;;;;;6.75;4.53;;;22.80;95.40;;;;;;4982417;28;20405;-87
2021/09/11 08:43:53;;;;;;;5.28;4.70;;;22.90;95.10;;;;;;4999395;28;20125;-88
2021/09/11 08:46:18;;;;;;;4.95;4.40;;;22.90;94.90;;;;;;4999374;28;20350;-86
2021/09/11 08:48:44;;;;;;;4.43;3.97;;;22.90;94.80;;;;;;4999633;28;20042;-87
2021/09/11 08:51:09;;;;;;;5.97;4.43;;;22.90;94.60;;;;;;5014708;28;20084;-87
2021/09/11 08:53:36;;;;;;;4.05;3.65;;;23.00;94.50;;;;;;5025319;28;20042;-86
2021/09/11 08:56:02;;;;;;;4.38;3.97;;;23.00;94.70;;;;;;5000554;28;20042;-86
2021/09/11 08:58:28;;;;;;;4.53;3.50;;;23.00;94.50;;;;;;4982173;28;20038;-87
2021/09/11 09:00:58;;;;;;;4.35;3.92;;;23.00;94.60;;;;;;4999237;28;20124;-87
2021/09/11 09:03:33;;;;;;;4.65;4.00;;;23.10;94.60;;;;;;4998084;28;20038;-86
2021/09/11 09:06:19;;;;;;;4.70;4.20;;;23.20;94.50;;;;;;4999395;28;20049;-93
2021/09/11 09:08:47;;;;;;;6.40;4.55;;;23.20;94.40;;;;;;4998926;28;20061;-88
2021/09/11 09:11:30;;;;;;;4.63;4.13;;;23.20;94.20;;;;;;4997514;28;20045;-86
2021/09/11 09:14:02;;;;;;;5.38;3.80;;;23.30;94.20;;;;;;5000905;28;20042;-87
2021/09/11 09:16:52;;;;;;;4.43;3.55;;;23.40;93.90;;;;;;4995723;28;20120;-87
2021/09/11 09:19:24;;;;;;;3.92;3.50;;;23.50;94.00;;;;;;4996545;28;20038;-87
2021/09/11 09:21:53;;;;;;;4.57;3.45;;;23.40;93.80;;;;;;4995778;28;20133;-88
2021/09/11 09:24:29;;;;;;;4.05;3.22;;;23.50;94.00;;;;;;5003746;28;20053;-86
2021/09/11 09:26:56;;;;;;;4.10;3.70;;;23.40;93.80;;;;;;5002421;28;20050;-88
2021/09/11 09:29:22;;;;;;;5.75;3.40;;;23.50;93.90;;;;;;4996964;28;20483;-87
2021/09/11 09:31:50;;;;;;;5.15;3.25;;;23.60;93.80;;;;;;4997289;28;20050;-87
2021/09/11 09:34:37;;;;;;;3.55;2.58;;;23.80;93.30;;;;;;4981388;28;20073;-87
2021/09/11 09:37:14;;;;;;;5.22;2.47;;;24.00;92.80;;;;;;4979823;28;20045;-86
2021/09/11 09:39:43;;;;;;;2.55;2.30;;;24.10;92.40;;;;;;4999896;28;20073;-93
2021/09/11 09:42:09;;;;;;;2.75;2.28;;;24.20;92.10;;;;;;4985313;28;20042;-93
2021/09/11 09:45:06;;;;;;;2.08;1.85;;;24.20;91.90;;;;;;4983125;28;20046;-93
2021/09/11 09:51:22;;;;;;;2.38;1.83;;;24.30;91.70;;;;;;5000647;28;20053;-93
2021/09/11 09:53:51;;;;;;;3.28;2.22;;;24.50;91.70;;;;;;4993351;28;20136;-90
2021/09/11 09:56:18;;;;;;;2.40;1.85;;;24.60;91.60;;;;;;5025495;28;20072;-89
2021/09/11 09:58:44;;;;;;;2.33;1.70;;;24.60;90.80;;;;;;5005287;28;20060;-88
2021/09/11 10:01:09;;;;;;;3.00;1.88;;;24.60;90.90;;;;;;4985647;28;20039;-88
2021/09/11 10:03:35;;;;;;;2.30;1.35;;;24.70;91.10;;;;;;4993952;28;20070;-89
2021/09/11 10:06:06;;;;;;;2.47;1.88;;;24.70;91.30;;;;;;4997246;28;20030;-88
2021/09/11 10:08:37;;;;;;;3.00;2.15;;;24.70;90.60;;;;;;4992796;28;20034;-85
2021/09/11 10:11:10;;;;;;;2.97;2.10;;;24.70;91.00;;;;;;4980324;28;20042;-86
2021/09/11 10:13:36;;;;;;;2.47;2.00;;;24.60;90.90;;;;;;4996774;28;20582;-87
2021/09/11 10:16:10;;;;;;;4.10;2.30;;;24.60;91.30;;;;;;5003847;28;20385;-88
2021/09/11 10:18:35;;;;;;;3.70;2.28;;;24.60;91.50;;;;;;4992493;28;20042;-89
2021/09/11 10:21:39;;;;;;;2.67;1.77;;;24.60;91.20;;;;;;4980805;28;20121;-88
2021/09/11 10:24:15;;;;;;;2.70;2.17;;;24.60;91.20;;;;;;5012934;28;20530;-88
2021/09/11 10:26:44;;;;;;;4.70;2.30;;;24.60;91.50;;;;;;5012152;28;20042;-86
2021/09/11 10:29:32;;;;;;;2.17;1.98;;;24.70;91.60;;;;;;4998071;28;20046;-87
2021/09/11 10:32:17;;;;;;;2.40;1.90;;;24.70;91.20;;;;;;5000775;28;20053;-86
2021/09/11 10:34:50;;;;;;;2.30;2.10;;;24.80;91.40;;;;;;5003946;28;20499;-87
2021/09/11 10:37:32;;;;;;;1.70;1.60;;;25.00;91.20;;;;;;5004044;28;20424;-86
2021/09/11 10:40:26;;;;;;;2.47;2.28;;;25.10;90.90;;;;;;5002092;28;20041;-87
2021/09/11 10:43:10;;;;;;;2.38;1.65;;;25.20;90.90;;;;;;5026414;28;20040;-87
2021/09/11 10:45:46;;;;;;;2.67;1.60;;;25.40;90.10;;;;;;4999283;28;20643;-89
2021/09/11 10:48:34;;;;;;;1.85;1.45;;;25.60;89.40;;;;;;4981131;28;20310;-88
2021/09/11 10:51:34;;;;;;;1.65;1.40;;;25.60;88.30;;;;;;5001944;28;20077;-89
2021/09/11 10:54:22;;;;;;;1.92;1.33;;;25.60;89.30;;;;;;5005072;28;20096;-89
2021/09/11 10:56:51;;;;;;;2.47;1.83;;;25.50;89.00;;;;;;4982263;28;20042;-88
2021/09/11 10:59:20;;;;;;;1.92;1.20;;;25.40;89.30;;;;;;4981416;28;20057;-89
2021/09/11 11:02:05;;;;;;;1.88;1.40;;;25.40;89.70;;;;;;4980877;28;20046;-89
2021/09/11 11:04:48;;;;;;;1.88;1.00;;;25.40;90.60;;;;;;4998596;28;20038;-91
2021/09/11 11:07:20;;;;;;;1.00;0.90;;;25.40;89.90;;;;;;4982011;28;20065;-88
2021/09/11 11:09:48;;;;;;;3.05;1.55;;;25.30;90.20;;;;;;4998338;28;20117;-88
2021/09/11 11:12:20;;;;;;;2.25;1.30;;;25.20;90.30;;;;;;4980612;28;20049;-88
2021/09/11 11:14:45;;;;;;;2.88;1.30;;;25.30;89.20;;;;;;4997680;28;20042;-87
2021/09/11 11:17:16;;;;;;;1.52;0.98;;;25.30;90.00;;;;;;4980230;28;20196;-88
2021/09/11 11:19:44;;;;;;;4.70;1.65;;;25.40;89.30;;;;;;4980743;28;20037;-89
2021/09/11 11:22:13;;;;;;;1.58;0.80;;;25.50;89.40;;;;;;5008184;28;20093;-88
2021/09/11 11:24:44;;;;;;;1.25;1.00;;;25.60;89.00;;;;;;4980635;28;20321;-88
2021/09/11 11:27:12;;;;;;;1.20;0.70;;;25.70;87.60;;;;;;4997950;28;20034;-89
2021/09/11 11:29:38;;;;;;;2.25;0.80;;;25.70;87.20;;;;;;4997022;28;20046;-90
2021/09/11 11:32:06;;;;;;;1.77;1.08;;;25.60;87.20;;;;;;4986723;28;20132;-87
2021/09/11 11:34:31;;;;;;;1.27;0.98;;;25.60;88.40;;;;;;5002889;28;20061;-88
2021/09/11 11:37:00;;;;;;;2.15;1.17;;;25.70;89.80;;;;;;4997137;28;20453;-87
2021/09/11 11:39:31;;;;;;;1.88;0.93;;;25.80;87.80;;;;;;4997272;28;20034;-87
2021/09/11 11:42:12;;;;;;;2.22;0.88;;;25.90;85.60;;;;;;4995599;28;20038;-87
2021/09/11 11:44:49;;;;;;;1.65;1.00;;;25.90;86.00;;;;;;4996703;28;20042;-87
2021/09/11 11:47:44;;;;;;;1.27;0.80;;;26.10;85.60;;;;;;5000246;28;20053;-87
2021/09/11 11:50:19;;;;;;;1.13;0.90;;;26.20;85.00;;;;;;5001146;28;20070;-87
2021/09/11 11:52:51;;;;;;;1.17;0.80;;;26.40;86.30;;;;;;4979411;28;20066;-87
2021/09/11 11:55:20;;;;;;;1.35;0.77;;;26.70;85.20;;;;;;4980002;28;20034;-87
2021/09/11 11:57:45;;;;;;;2.83;0.80;;;26.90;85.00;;;;;;4996524;28;20034;-87
2021/09/11 12:00:12;;;;;;;1.08;0.80;;;27.10;84.30;;;;;;4979605;28;20056;-88
2021/09/11 12:02:41;;;;;;;1.20;0.80;;;27.20;82.60;;;;;;4996613;28;20042;-87
2021/09/11 12:05:24;;;;;;;1.00;0.85;;;27.40;82.40;;;;;;4996329;28;20042;-88
2021/09/11 12:07:57;;;;;;;1.55;0.95;;;27.40;81.00;;;;;;4995968;28;20352;-88
2021/09/11 12:10:26;;;;;;;0.80;0.80;;;27.40;80.00;;;;;;4979694;28;20084;-88
2021/09/11 12:12:57;;;;;;;1.25;0.93;;;27.30;80.80;;;;;;5011709;28;20483;-87
2021/09/11 12:15:26;;;;;;;1.42;0.90;;;27.30;79.50;;;;;;4996399;28;20038;-87
2021/09/11 12:17:56;;;;;;;3.30;1.35;;;27.30;79.90;;;;;;4996210;28;20038;-90
2021/09/11 12:20:24;;;;;;;1.00;0.80;;;27.40;80.00;;;;;;4979699;28;20385;-87
2021/09/11 12:23:12;;;;;;;1.52;1.00;;;27.50;78.40;;;;;;5000741;28;20034;-88
2021/09/11 12:25:49;;;;;;;1.35;1.00;;;27.50;79.20;;;;;;5016533;28;20131;-87
2021/09/11 12:28:42;;;;;;;1.85;0.82;;;27.60;78.20;;;;;;4978887;28;20129;-88
2021/09/11 12:31:10;;;;;;;1.42;1.10;;;27.70;79.70;;;;;;4996823;28;20042;-88
2021/09/11 12:34:00;;;;;;;3.67;1.42;;;27.80;77.90;;;;;;4994974;28;20309;-87
2021/09/11 12:36:34;;;;;;;3.85;0.90;;;27.90;77.40;;;;;;4995140;28;20092;-86
2021/09/11 12:39:23;;;;;;;1.85;1.20;;;27.90;75.90;;;;;;4977873;28;20186;-87
2021/09/11 12:41:50;;;;;;;1.00;0.90;;;27.90;76.70;;;;;;4978372;28;20042;-88
2021/09/11 12:44:26;;;;;;;1.30;0.80;;;27.90;76.80;;;;;;4998024;28;20409;-88
2021/09/11 12:46:56;;;;;;;1.13;0.93;;;27.90;76.60;;;;;;4982822;28;20046;-89
2021/09/11 12:49:27;;;;;;;1.35;1.00;;;27.80;77.00;;;;;;4982726;28;20366;-89
2021/09/11 12:51:53;;;;;;;1.45;1.10;;;27.70;78.50;;;;;;4982555;28;20041;-89
2021/09/11 12:54:21;;;;;;;2.65;1.30;;;27.70;78.00;;;;;;4977963;28;20326;-88